| time (UTC) | temp F | wind direction | speed MPH | gust MPH | rain 1hr in | rain 24hr in | rain mn in | humidity % | barometer mb |
| 20260508011504 | 49 | 313 | 1.0 | 5.0 | 0.00 | 0.01 | 0.00 | 85 | 1013.2 |
| 20260508010006 | 49 | 313 | 0.0 | 2.0 | 0.00 | 0.01 | 0.00 | 85 | 1013.3 |
| 20260508004503 | 49 | 313 | 0.0 | 4.0 | 0.00 | 0.01 | 0.00 | 85 | 1013.5 |
| 20260508003006 | 49 | 313 | 0.0 | 2.0 | 0.00 | 0.01 | 0.00 | 85 | 1013.6 |
| 20260508001503 | 49 | 313 | 0.0 | 2.0 | 0.00 | 0.01 | 0.00 | 84 | 1013.7 |
| 20260507234504 | 49 | 300 | 0.0 | 3.0 | 0.00 | 0.01 | 0.00 | 83 | 1013.8 |
| 20260507231503 | 50 | 0 | 0.0 | 0.0 | 0.00 | 0.01 | 0.00 | 81 | 1013.7 |
| 20260507230007 | 50 | 0 | 0.0 | 0.0 | 0.00 | 0.01 | 0.00 | 81 | 1013.7 |
| 20260507224504 | 51 | 0 | 0.0 | 0.0 | 0.00 | 0.01 | 0.01 | 81 | 1013.6 |
| 20260507223006 | 51 | 0 | 0.0 | 0.0 | 0.00 | 0.01 | 0.01 | 80 | 1013.6 |
| 20260507221504 | 51 | 235 | 0.0 | 2.0 | 0.00 | 0.01 | 0.01 | 79 | 1013.6 |
| 20260507214503 | 51 | 0 | 0.0 | 0.0 | 0.00 | 0.01 | 0.01 | 78 | 1013.5 |
| 20260507213006 | 52 | 0 | 0.0 | 0.0 | 0.00 | 0.01 | 0.01 | 77 | 1013.4 |
| 20260507211504 | 52 | 234 | 0.0 | 9.0 | 0.00 | 0.01 | 0.01 | 77 | 1013.4 |
| 20260507210005 | 52 | 204 | 1.0 | 9.0 | 0.00 | 0.01 | 0.01 | 76 | 1013.2 |
| 20260507201503 | 53 | 194 | 0.0 | 4.0 | 0.00 | 0.01 | 0.01 | 73 | 1012.8 |
| 20260507193005 | 54 | 173 | 0.0 | 3.0 | 0.00 | 0.01 | 0.01 | 72 | 1012.6 |
| 20260507191505 | 54 | 219 | 1.0 | 6.0 | 0.00 | 0.01 | 0.01 | 71 | 1012.5 |
| 20260507190007 | 54 | 210 | 3.0 | 12.0 | 0.00 | 0.01 | 0.01 | 70 | 1012.4 |
| 20260507183007 | 55 | 212 | 2.0 | 11.0 | 0.00 | 0.01 | 0.01 | 70 | 1012.3 |
| 20260507181505 | 55 | 209 | 3.0 | 8.0 | 0.00 | 0.01 | 0.01 | 68 | 1012.3 |
| 20260507174505 | 55 | 200 | 4.0 | 16.0 | 0.00 | 0.01 | 0.01 | 67 | 1012.3 |
| 20260507173007 | 56 | 204 | 4.0 | 14.0 | 0.00 | 0.01 | 0.01 | 69 | 1012.3 |
| 20260507171504 | 56 | 207 | 3.0 | 13.0 | 0.00 | 0.01 | 0.01 | 69 | 1012.4 |
| 20260507170007 | 56 | 196 | 3.0 | 16.0 | 0.00 | 0.01 | 0.01 | 69 | 1012.5 |
| 20260507164505 | 57 | 181 | 4.0 | 12.0 | 0.00 | 0.01 | 0.01 | 70 | 1012.4 |
| 20260507163007 | 57 | 202 | 3.0 | 14.0 | 0.00 | 0.01 | 0.01 | 66 | 1012.4 |
| 20260507161505 | 57 | 206 | 5.0 | 19.0 | 0.00 | 0.01 | 0.01 | 69 | 1012.3 |
| 20260507160006 | 57 | 205 | 4.0 | 23.0 | 0.00 | 0.01 | 0.01 | 68 | 1012.4 |
| 20260507154505 | 58 | 208 | 4.0 | 15.0 | 0.00 | 0.01 | 0.01 | 67 | 1012.4 |
| 20260507153006 | 58 | 187 | 4.0 | 13.0 | 0.00 | 0.01 | 0.01 | 67 | 1012.3 |
| 20260507151505 | 58 | 189 | 6.0 | 21.0 | 0.00 | 0.01 | 0.01 | 67 | 1012.3 |
| 20260507150007 | 59 | 197 | 4.0 | 18.0 | 0.00 | 0.01 | 0.01 | 67 | 1012.3 |
| 20260507144505 | 58 | 184 | 6.0 | 19.0 | 0.00 | 0.01 | 0.01 | 63 | 1012.4 |
| 20260507143007 | 58 | 205 | 9.0 | 22.0 | 0.00 | 0.01 | 0.01 | 65 | 1012.5 |
| 20260507141505 | 59 | 209 | 6.0 | 18.0 | 0.00 | 0.01 | 0.01 | 60 | 1012.4 |
| 20260507140007 | 58 | 207 | 10.0 | 20.0 | 0.00 | 0.01 | 0.01 | 61 | 1012.6 |
| 20260507134504 | 57 | 203 | 11.0 | 25.0 | 0.00 | 0.01 | 0.01 | 62 | 1012.5 |
| 20260507133006 | 57 | 206 | 9.0 | 29.0 | 0.00 | 0.01 | 0.01 | 66 | 1012.5 |
| 20260507131505 | 57 | 204 | 10.0 | 21.0 | 0.00 | 0.01 | 0.01 | 66 | 1012.6 |
| 20260507130007 | 57 | 205 | 11.0 | 29.0 | 0.00 | 0.01 | 0.01 | 66 | 1012.6 |
| 20260507124504 | 56 | 204 | 10.0 | 23.0 | 0.00 | 0.01 | 0.01 | 64 | 1012.6 |
| 20260507123006 | 56 | 206 | 8.0 | 22.0 | 0.00 | 0.01 | 0.01 | 66 | 1012.6 |
| 20260507121505 | 57 | 204 | 9.0 | 24.0 | 0.00 | 0.01 | 0.01 | 66 | 1012.8 |
| 20260507120007 | 56 | 204 | 9.0 | 27.0 | 0.00 | 0.01 | 0.01 | 67 | 1012.7 |
| 20260507114505 | 57 | 207 | 9.0 | 31.0 | 0.00 | 0.01 | 0.01 | 65 | 1012.7 |
| 20260507113007 | 56 | 205 | 8.0 | 25.0 | 0.00 | 0.01 | 0.01 | 68 | 1012.6 |
| 20260507110006 | 56 | 208 | 7.0 | 20.0 | 0.00 | 0.01 | 0.01 | 69 | 1012.7 |
| 20260507101507 | 56 | 202 | 2.0 | 14.0 | 0.00 | 0.01 | 0.01 | 77 | 1012.8 |
| 20260507100006 | 56 | 202 | 1.0 | 6.0 | 0.00 | 0.01 | 0.01 | 80 | 1012.7 |
| 20260507094505 | 54 | 201 | 1.0 | 11.0 | 0.00 | 0.01 | 0.01 | 84 | 1012.7 |
| 20260507093007 | 53 | 193 | 1.0 | 6.0 | 0.00 | 0.01 | 0.01 | 84 | 1012.7 |
| 20260507090006 | 53 | 204 | 5.0 | 11.0 | 0.01 | 0.01 | 0.01 | 86 | 1012.7 |
| 20260507084505 | 51 | 201 | 6.0 | 14.0 | 0.01 | 0.01 | 0.01 | 85 | 1012.6 |
| 20260507083006 | 51 | 209 | 4.0 | 15.0 | 0.01 | 0.01 | 0.01 | 87 | 1012.6 |
| 20260507080006 | 51 | 210 | 9.0 | 21.0 | 0.00 | 0.00 | 0.00 | 82 | 1012.6 |
| 20260507074504 | 53 | 200 | 11.0 | 23.0 | 0.00 | 0.00 | 0.00 | 75 | 1012.5 |
| 20260507064504 | 53 | 199 | 10.0 | 21.0 | 0.00 | 0.00 | 0.00 | 74 | 1012.4 |
| 20260507063007 | 53 | 202 | 9.0 | 17.0 | 0.00 | 0.00 | 0.00 | 75 | 1012.5 |
| 20260507061505 | 52 | 200 | 9.0 | 19.0 | 0.00 | 0.00 | 0.00 | 76 | 1012.4 |
| 20260507060007 | 52 | 203 | 8.0 | 17.0 | 0.00 | 0.00 | 0.00 | 78 | 1012.5 |
| 20260507054504 | 51 | 196 | 8.0 | 18.0 | 0.00 | 0.00 | 0.00 | 78 | 1012.4 |
| 20260507053006 | 52 | 200 | 7.0 | 16.0 | 0.00 | 0.00 | 0.00 | 78 | 1012.4 |
| 20260507051505 | 51 | 201 | 7.0 | 14.0 | 0.00 | 0.00 | 0.00 | 77 | 1012.4 |
| 20260507050006 | 51 | 202 | 4.0 | 13.0 | 0.00 | 0.00 | 0.00 | 76 | 1012.4 |
| 20260507044504 | 51 | 204 | 3.0 | 13.0 | 0.00 | 0.00 | 0.00 | 75 | 1012.3 |
| 20260507041505 | 51 | 207 | 3.0 | 8.0 | 0.00 | 0.00 | 0.00 | 77 | 1012.3 |
| 20260507040006 | 51 | 205 | 3.0 | 10.0 | 0.00 | 0.00 | 0.00 | 77 | 1012.2 |
| 20260507034505 | 51 | 207 | 3.0 | 11.0 | 0.00 | 0.00 | 0.00 | 76 | 1012.4 |
| 20260507033006 | 51 | 206 | 5.0 | 11.0 | 0.00 | 0.00 | 0.00 | 76 | 1012.4 |
| 20260507031504 | 51 | 205 | 2.0 | 8.0 | 0.00 | 0.00 | 0.00 | 76 | 1012.5 |
| 20260507030007 | 51 | 207 | 4.0 | 12.0 | 0.00 | 0.00 | 0.00 | 76 | 1012.6 |
| 20260507024504 | 51 | 207 | 3.0 | 8.0 | 0.00 | 0.00 | 0.00 | 77 | 1012.5 |
| 20260507021504 | 51 | 202 | 2.0 | 6.0 | 0.00 | 0.00 | 0.00 | 77 | 1012.6 |
| 20260507020007 | 51 | 207 | 3.0 | 10.0 | 0.00 | 0.00 | 0.00 | 77 | 1012.6 |
| 20260507014504 | 51 | 203 | 2.0 | 8.0 | 0.00 | 0.00 | 0.00 | 77 | 1012.7 |